sensor_id;sensor_type;location;lat;lon;timestamp;P1;durP1;ratioP1;P2;durP2;ratioP2
43700;SDS011;58809;47.984;7.964;2022-10-16T00:01:50;4.75;;;2.22;;
43700;SDS011;58809;47.984;7.964;2022-10-16T00:04:52;4.00;;;2.30;;
43700;SDS011;58809;47.984;7.964;2022-10-16T00:07:53;4.80;;;2.38;;
43700;SDS011;58809;47.984;7.964;2022-10-16T00:10:58;4.72;;;2.25;;
43700;SDS011;58809;47.984;7.964;2022-10-16T00:14:02;7.20;;;2.67;;
43700;SDS011;58809;47.984;7.964;2022-10-16T00:17:05;4.55;;;2.50;;
43700;SDS011;58809;47.984;7.964;2022-10-16T00:20:07;7.20;;;2.70;;
43700;SDS011;58809;47.984;7.964;2022-10-16T00:23:09;6.45;;;3.20;;
43700;SDS011;58809;47.984;7.964;2022-10-16T00:26:12;6.43;;;2.42;;
43700;SDS011;58809;47.984;7.964;2022-10-16T00:29:15;6.28;;;2.20;;
43700;SDS011;58809;47.984;7.964;2022-10-16T00:32:18;4.53;;;2.38;;
43700;SDS011;58809;47.984;7.964;2022-10-16T00:35:20;4.63;;;2.90;;
43700;SDS011;58809;47.984;7.964;2022-10-16T00:38:22;5.55;;;2.33;;
43700;SDS011;58809;47.984;7.964;2022-10-16T00:41:24;5.68;;;2.40;;
43700;SDS011;58809;47.984;7.964;2022-10-16T00:44:43;5.75;;;2.20;;
43700;SDS011;58809;47.984;7.964;2022-10-16T00:47:56;6.53;;;2.58;;
43700;SDS011;58809;47.984;7.964;2022-10-16T00:50:58;7.43;;;2.80;;
43700;SDS011;58809;47.984;7.964;2022-10-16T00:54:01;6.97;;;3.60;;
43700;SDS011;58809;47.984;7.964;2022-10-16T00:57:05;6.43;;;2.22;;
43700;SDS011;58809;47.984;7.964;2022-10-16T01:00:09;2.78;;;1.98;;
43700;SDS011;58809;47.984;7.964;2022-10-16T01:03:31;9.15;;;2.13;;
43700;SDS011;58809;47.984;7.964;2022-10-16T01:06:42;6.32;;;2.25;;
43700;SDS011;58809;47.984;7.964;2022-10-16T01:16:05;4.75;;;2.63;;
43700;SDS011;58809;47.984;7.964;2022-10-16T01:19:16;8.23;;;2.88;;
43700;SDS011;58809;47.984;7.964;2022-10-16T01:22:30;6.20;;;3.10;;
43700;SDS011;58809;47.984;7.964;2022-10-16T01:26:01;8.70;;;2.97;;
43700;SDS011;58809;47.984;7.964;2022-10-16T01:29:15;8.82;;;3.22;;
43700;SDS011;58809;47.984;7.964;2022-10-16T01:32:26;9.65;;;3.00;;
43700;SDS011;58809;47.984;7.964;2022-10-16T01:35:39;10.65;;;3.13;;
43700;SDS011;58809;47.984;7.964;2022-10-16T01:38:44;5.55;;;3.28;;
43700;SDS011;58809;47.984;7.964;2022-10-16T01:41:58;7.35;;;2.83;;
43700;SDS011;58809;47.984;7.964;2022-10-16T01:45:14;6.68;;;2.35;;
43700;SDS011;58809;47.984;7.964;2022-10-16T01:48:19;6.00;;;2.67;;
43700;SDS011;58809;47.984;7.964;2022-10-16T01:51:24;6.47;;;3.08;;
43700;SDS011;58809;47.984;7.964;2022-10-16T01:54:27;10.35;;;3.70;;
43700;SDS011;58809;47.984;7.964;2022-10-16T01:57:32;4.00;;;2.03;;
43700;SDS011;58809;47.984;7.964;2022-10-16T02:00:38;4.97;;;2.67;;
43700;SDS011;58809;47.984;7.964;2022-10-16T02:03:42;7.65;;;2.67;;
43700;SDS011;58809;47.984;7.964;2022-10-16T02:06:45;4.13;;;2.58;;
43700;SDS011;58809;47.984;7.964;2022-10-16T02:09:47;5.28;;;2.58;;
43700;SDS011;58809;47.984;7.964;2022-10-16T02:12:50;11.13;;;3.92;;
43700;SDS011;58809;47.984;7.964;2022-10-16T02:15:58;6.55;;;3.00;;
43700;SDS011;58809;47.984;7.964;2022-10-16T02:19:00;6.07;;;2.60;;
43700;SDS011;58809;47.984;7.964;2022-10-16T02:22:03;4.78;;;2.63;;
43700;SDS011;58809;47.984;7.964;2022-10-16T02:31:21;6.43;;;2.50;;
43700;SDS011;58809;47.984;7.964;2022-10-16T02:34:29;5.72;;;2.67;;
43700;SDS011;58809;47.984;7.964;2022-10-16T02:37:33;4.85;;;2.95;;
43700;SDS011;58809;47.984;7.964;2022-10-16T02:40:36;5.30;;;3.00;;
43700;SDS011;58809;47.984;7.964;2022-10-16T02:43:38;8.82;;;2.97;;
43700;SDS011;58809;47.984;7.964;2022-10-16T02:46:39;10.75;;;3.60;;
43700;SDS011;58809;47.984;7.964;2022-10-16T02:49:41;7.85;;;3.20;;
43700;SDS011;58809;47.984;7.964;2022-10-16T02:52:43;14.52;;;3.95;;
43700;SDS011;58809;47.984;7.964;2022-10-16T02:55:44;7.25;;;3.38;;
43700;SDS011;58809;47.984;7.964;2022-10-16T02:58:46;12.25;;;3.20;;
43700;SDS011;58809;47.984;7.964;2022-10-16T03:01:47;7.32;;;3.08;;
43700;SDS011;58809;47.984;7.964;2022-10-16T03:04:49;5.25;;;2.92;;
43700;SDS011;58809;47.984;7.964;2022-10-16T03:07:51;7.75;;;3.20;;
43700;SDS011;58809;47.984;7.964;2022-10-16T03:10:53;9.10;;;3.20;;
43700;SDS011;58809;47.984;7.964;2022-10-16T03:13:55;9.68;;;3.13;;
43700;SDS011;58809;47.984;7.964;2022-10-16T03:16:56;3.47;;;2.65;;
43700;SDS011;58809;47.984;7.964;2022-10-16T03:19:58;7.00;;;3.42;;
43700;SDS011;58809;47.984;7.964;2022-10-16T03:23:00;8.38;;;3.22;;
43700;SDS011;58809;47.984;7.964;2022-10-16T03:26:03;8.23;;;3.35;;
43700;SDS011;58809;47.984;7.964;2022-10-16T03:29:05;6.45;;;3.65;;
43700;SDS011;58809;47.984;7.964;2022-10-16T03:32:07;5.22;;;3.60;;
43700;SDS011;58809;47.984;7.964;2022-10-16T03:35:09;6.70;;;3.60;;
43700;SDS011;58809;47.984;7.964;2022-10-16T03:38:10;8.00;;;3.28;;
43700;SDS011;58809;47.984;7.964;2022-10-16T03:41:12;10.93;;;3.47;;
43700;SDS011;58809;47.984;7.964;2022-10-16T03:44:13;9.07;;;3.30;;
43700;SDS011;58809;47.984;7.964;2022-10-16T03:47:16;5.68;;;3.20;;
43700;SDS011;58809;47.984;7.964;2022-10-16T03:50:21;8.93;;;3.08;;
43700;SDS011;58809;47.984;7.964;2022-10-16T03:53:23;9.20;;;3.72;;
43700;SDS011;58809;47.984;7.964;2022-10-16T03:56:25;6.60;;;3.25;;
43700;SDS011;58809;47.984;7.964;2022-10-16T03:59:27;6.18;;;3.25;;
43700;SDS011;58809;47.984;7.964;2022-10-16T04:02:29;5.95;;;3.10;;
43700;SDS011;58809;47.984;7.964;2022-10-16T04:05:30;8.85;;;3.17;;
43700;SDS011;58809;47.984;7.964;2022-10-16T04:08:32;7.97;;;3.00;;
43700;SDS011;58809;47.984;7.964;2022-10-16T04:11:36;7.40;;;3.38;;
43700;SDS011;58809;47.984;7.964;2022-10-16T04:14:37;6.88;;;3.13;;
43700;SDS011;58809;47.984;7.964;2022-10-16T04:17:39;6.15;;;3.58;;
43700;SDS011;58809;47.984;7.964;2022-10-16T04:20:40;5.75;;;3.28;;
43700;SDS011;58809;47.984;7.964;2022-10-16T04:23:42;4.40;;;3.17;;
43700;SDS011;58809;47.984;7.964;2022-10-16T04:26:44;6.22;;;3.70;;
43700;SDS011;58809;47.984;7.964;2022-10-16T04:29:45;12.18;;;3.83;;
43700;SDS011;58809;47.984;7.964;2022-10-16T04:32:50;9.48;;;3.50;;
43700;SDS011;58809;47.984;7.964;2022-10-16T04:35:56;8.88;;;3.63;;
43700;SDS011;58809;47.984;7.964;2022-10-16T04:39:01;9.60;;;4.35;;
43700;SDS011;58809;47.984;7.964;2022-10-16T04:42:03;7.57;;;3.53;;
43700;SDS011;58809;47.984;7.964;2022-10-16T04:45:05;6.30;;;3.50;;
43700;SDS011;58809;47.984;7.964;2022-10-16T04:48:07;7.95;;;3.88;;
43700;SDS011;58809;47.984;7.964;2022-10-16T04:51:09;10.27;;;3.72;;
43700;SDS011;58809;47.984;7.964;2022-10-16T04:54:11;9.07;;;4.03;;
43700;SDS011;58809;47.984;7.964;2022-10-16T04:57:12;9.77;;;3.78;;
43700;SDS011;58809;47.984;7.964;2022-10-16T05:00:14;6.97;;;3.20;;
43700;SDS011;58809;47.984;7.964;2022-10-16T05:03:16;12.95;;;4.07;;
43700;SDS011;58809;47.984;7.964;2022-10-16T05:06:18;12.88;;;4.65;;
43700;SDS011;58809;47.984;7.964;2022-10-16T05:09:19;7.95;;;4.00;;
43700;SDS011;58809;47.984;7.964;2022-10-16T05:12:21;8.82;;;4.20;;
43700;SDS011;58809;47.984;7.964;2022-10-16T05:15:23;7.03;;;3.83;;
43700;SDS011;58809;47.984;7.964;2022-10-16T05:18:26;16.00;;;4.00;;
43700;SDS011;58809;47.984;7.964;2022-10-16T05:21:27;9.60;;;4.03;;
43700;SDS011;58809;47.984;7.964;2022-10-16T05:24:29;7.22;;;3.83;;
43700;SDS011;58809;47.984;7.964;2022-10-16T05:27:30;6.95;;;3.85;;
43700;SDS011;58809;47.984;7.964;2022-10-16T05:30:32;8.25;;;4.57;;
43700;SDS011;58809;47.984;7.964;2022-10-16T05:33:34;7.82;;;4.22;;
43700;SDS011;58809;47.984;7.964;2022-10-16T05:36:35;6.55;;;4.30;;
43700;SDS011;58809;47.984;7.964;2022-10-16T05:39:37;24.67;;;15.50;;
43700;SDS011;58809;47.984;7.964;2022-10-16T05:42:40;10.30;;;4.47;;
43700;SDS011;58809;47.984;7.964;2022-10-16T05:45:42;9.45;;;4.70;;
43700;SDS011;58809;47.984;7.964;2022-10-16T05:48:43;6.68;;;4.03;;
43700;SDS011;58809;47.984;7.964;2022-10-16T05:51:45;13.38;;;3.97;;
43700;SDS011;58809;47.984;7.964;2022-10-16T05:54:47;11.40;;;4.93;;
43700;SDS011;58809;47.984;7.964;2022-10-16T05:57:49;9.85;;;5.50;;
43700;SDS011;58809;47.984;7.964;2022-10-16T06:00:54;13.30;;;5.15;;
43700;SDS011;58809;47.984;7.964;2022-10-16T06:03:57;10.48;;;5.13;;
43700;SDS011;58809;47.984;7.964;2022-10-16T06:06:59;7.68;;;4.20;;
43700;SDS011;58809;47.984;7.964;2022-10-16T06:10:03;7.15;;;4.20;;
43700;SDS011;58809;47.984;7.964;2022-10-16T06:13:06;8.85;;;4.18;;
43700;SDS011;58809;47.984;7.964;2022-10-16T06:16:07;6.55;;;4.00;;
43700;SDS011;58809;47.984;7.964;2022-10-16T06:19:10;10.60;;;3.92;;
43700;SDS011;58809;47.984;7.964;2022-10-16T06:22:12;6.93;;;3.85;;
43700;SDS011;58809;47.984;7.964;2022-10-16T06:25:13;8.82;;;4.35;;
43700;SDS011;58809;47.984;7.964;2022-10-16T06:28:15;6.03;;;4.15;;
43700;SDS011;58809;47.984;7.964;2022-10-16T06:31:17;9.10;;;4.20;;
43700;SDS011;58809;47.984;7.964;2022-10-16T06:34:19;9.77;;;4.00;;
43700;SDS011;58809;47.984;7.964;2022-10-16T06:37:20;6.47;;;4.03;;
43700;SDS011;58809;47.984;7.964;2022-10-16T06:40:23;12.65;;;4.13;;
43700;SDS011;58809;47.984;7.964;2022-10-16T06:43:25;6.47;;;3.60;;
43700;SDS011;58809;47.984;7.964;2022-10-16T06:46:27;6.60;;;4.00;;
43700;SDS011;58809;47.984;7.964;2022-10-16T06:49:28;7.25;;;3.45;;
43700;SDS011;58809;47.984;7.964;2022-10-16T06:52:30;7.78;;;3.85;;
43700;SDS011;58809;47.984;7.964;2022-10-16T06:55:32;7.38;;;3.72;;
43700;SDS011;58809;47.984;7.964;2022-10-16T06:58:33;6.63;;;3.80;;
43700;SDS011;58809;47.984;7.964;2022-10-16T07:01:35;9.30;;;4.05;;
43700;SDS011;58809;47.984;7.964;2022-10-16T07:04:36;6.50;;;3.88;;
43700;SDS011;58809;47.984;7.964;2022-10-16T07:07:38;6.88;;;3.92;;
43700;SDS011;58809;47.984;7.964;2022-10-16T07:10:40;8.48;;;3.88;;
43700;SDS011;58809;47.984;7.964;2022-10-16T07:13:42;8.10;;;4.07;;
43700;SDS011;58809;47.984;7.964;2022-10-16T07:16:44;10.00;;;4.18;;
43700;SDS011;58809;47.984;7.964;2022-10-16T07:19:46;5.95;;;4.10;;
43700;SDS011;58809;47.984;7.964;2022-10-16T07:22:47;6.25;;;3.78;;
43700;SDS011;58809;47.984;7.964;2022-10-16T07:25:53;5.63;;;3.50;;
43700;SDS011;58809;47.984;7.964;2022-10-16T07:28:56;10.20;;;4.15;;
43700;SDS011;58809;47.984;7.964;2022-10-16T07:31:58;7.40;;;4.10;;
43700;SDS011;58809;47.984;7.964;2022-10-16T07:35:00;6.95;;;3.90;;
43700;SDS011;58809;47.984;7.964;2022-10-16T07:38:01;7.15;;;4.72;;
43700;SDS011;58809;47.984;7.964;2022-10-16T07:41:04;6.13;;;3.90;;
43700;SDS011;58809;47.984;7.964;2022-10-16T07:44:07;9.65;;;4.25;;
43700;SDS011;58809;47.984;7.964;2022-10-16T07:47:09;7.43;;;4.18;;
43700;SDS011;58809;47.984;7.964;2022-10-16T07:50:10;7.53;;;3.80;;
43700;SDS011;58809;47.984;7.964;2022-10-16T07:53:12;9.45;;;3.47;;
43700;SDS011;58809;47.984;7.964;2022-10-16T07:56:14;6.57;;;4.53;;
43700;SDS011;58809;47.984;7.964;2022-10-16T07:59:16;8.75;;;4.13;;
43700;SDS011;58809;47.984;7.964;2022-10-16T08:02:18;8.57;;;3.88;;
43700;SDS011;58809;47.984;7.964;2022-10-16T08:05:19;7.47;;;4.15;;
43700;SDS011;58809;47.984;7.964;2022-10-16T08:08:21;10.75;;;4.53;;
43700;SDS011;58809;47.984;7.964;2022-10-16T08:11:22;6.07;;;4.13;;
43700;SDS011;58809;47.984;7.964;2022-10-16T08:14:24;6.05;;;4.47;;
43700;SDS011;58809;47.984;7.964;2022-10-16T08:17:26;12.35;;;5.07;;
43700;SDS011;58809;47.984;7.964;2022-10-16T08:20:29;13.77;;;3.70;;
43700;SDS011;58809;47.984;7.964;2022-10-16T08:23:32;7.23;;;3.80;;
43700;SDS011;58809;47.984;7.964;2022-10-16T08:26:33;9.60;;;4.10;;
43700;SDS011;58809;47.984;7.964;2022-10-16T08:29:35;16.35;;;4.00;;
43700;SDS011;58809;47.984;7.964;2022-10-16T08:32:37;6.35;;;3.60;;
43700;SDS011;58809;47.984;7.964;2022-10-16T08:35:39;8.52;;;3.95;;
43700;SDS011;58809;47.984;7.964;2022-10-16T08:38:41;6.93;;;3.50;;
43700;SDS011;58809;47.984;7.964;2022-10-16T08:41:54;7.88;;;3.83;;
43700;SDS011;58809;47.984;7.964;2022-10-16T08:54:32;8.52;;;3.80;;
43700;SDS011;58809;47.984;7.964;2022-10-16T08:57:41;8.88;;;3.53;;
43700;SDS011;58809;47.984;7.964;2022-10-16T09:00:43;9.85;;;4.15;;
43700;SDS011;58809;47.984;7.964;2022-10-16T09:07:29;8.15;;;3.83;;
43700;SDS011;58809;47.984;7.964;2022-10-16T09:14:06;10.68;;;4.10;;
43700;SDS011;58809;47.984;7.964;2022-10-16T09:17:35;11.02;;;3.97;;
43700;SDS011;58809;47.984;7.964;2022-10-16T09:23:55;10.00;;;4.20;;
43700;SDS011;58809;47.984;7.964;2022-10-16T09:27:00;10.65;;;4.72;;
43700;SDS011;58809;47.984;7.964;2022-10-16T09:30:09;10.15;;;3.90;;
43700;SDS011;58809;47.984;7.964;2022-10-16T09:33:12;8.73;;;4.20;;
43700;SDS011;58809;47.984;7.964;2022-10-16T09:36:15;6.10;;;3.70;;
43700;SDS011;58809;47.984;7.964;2022-10-16T09:39:18;6.35;;;3.83;;
43700;SDS011;58809;47.984;7.964;2022-10-16T09:42:20;7.97;;;3.60;;
43700;SDS011;58809;47.984;7.964;2022-10-16T09:45:26;7.60;;;3.58;;
43700;SDS011;58809;47.984;7.964;2022-10-16T09:48:33;8.38;;;3.20;;
43700;SDS011;58809;47.984;7.964;2022-10-16T09:51:39;12.40;;;3.75;;
43700;SDS011;58809;47.984;7.964;2022-10-16T09:57:56;11.57;;;4.95;;
43700;SDS011;58809;47.984;7.964;2022-10-16T10:00:57;7.90;;;3.70;;
43700;SDS011;58809;47.984;7.964;2022-10-16T10:03:59;9.70;;;3.95;;
43700;SDS011;58809;47.984;7.964;2022-10-16T10:07:02;4.10;;;3.38;;
43700;SDS011;58809;47.984;7.964;2022-10-16T10:10:04;4.65;;;3.25;;
43700;SDS011;58809;47.984;7.964;2022-10-16T10:13:20;7.45;;;3.22;;
43700;SDS011;58809;47.984;7.964;2022-10-16T10:16:24;4.60;;;3.47;;
43700;SDS011;58809;47.984;7.964;2022-10-16T10:19:26;7.10;;;3.47;;
43700;SDS011;58809;47.984;7.964;2022-10-16T10:22:39;8.30;;;3.15;;
43700;SDS011;58809;47.984;7.964;2022-10-16T10:42:13;5.80;;;2.58;;
43700;SDS011;58809;47.984;7.964;2022-10-16T10:45:26;5.70;;;2.25;;
43700;SDS011;58809;47.984;7.964;2022-10-16T10:48:44;3.67;;;2.53;;
43700;SDS011;58809;47.984;7.964;2022-10-16T10:55:08;4.68;;;2.70;;
43700;SDS011;58809;47.984;7.964;2022-10-16T11:01:44;6.43;;;2.85;;
43700;SDS011;58809;47.984;7.964;2022-10-16T11:08:30;8.55;;;2.80;;
43700;SDS011;58809;47.984;7.964;2022-10-16T11:11:47;3.15;;;2.10;;
43700;SDS011;58809;47.984;7.964;2022-10-16T11:15:04;5.60;;;3.13;;
43700;SDS011;58809;47.984;7.964;2022-10-16T11:18:16;2.38;;;2.17;;
43700;SDS011;58809;47.984;7.964;2022-10-16T11:21:23;2.55;;;2.22;;
43700;SDS011;58809;47.984;7.964;2022-10-16T11:24:35;7.38;;;2.75;;
43700;SDS011;58809;47.984;7.964;2022-10-16T11:31:17;2.75;;;2.03;;
43700;SDS011;58809;47.984;7.964;2022-10-16T11:34:28;5.05;;;2.65;;
43700;SDS011;58809;47.984;7.964;2022-10-16T11:37:38;5.15;;;2.20;;
43700;SDS011;58809;47.984;7.964;2022-10-16T11:40:45;2.17;;;1.98;;
43700;SDS011;58809;47.984;7.964;2022-10-16T11:47:35;9.27;;;2.95;;
43700;SDS011;58809;47.984;7.964;2022-10-16T11:51:05;3.45;;;2.17;;
43700;SDS011;58809;47.984;7.964;2022-10-16T11:54:24;2.58;;;1.92;;
43700;SDS011;58809;47.984;7.964;2022-10-16T11:57:34;6.40;;;2.03;;
43700;SDS011;58809;47.984;7.964;2022-10-16T12:07:32;4.25;;;2.78;;
43700;SDS011;58809;47.984;7.964;2022-10-16T12:10:39;2.45;;;2.05;;
43700;SDS011;58809;47.984;7.964;2022-10-16T12:13:42;4.65;;;2.33;;
43700;SDS011;58809;47.984;7.964;2022-10-16T12:19:57;2.10;;;1.90;;
43700;SDS011;58809;47.984;7.964;2022-10-16T12:23:01;5.18;;;2.58;;
43700;SDS011;58809;47.984;7.964;2022-10-16T12:26:07;3.00;;;2.50;;
43700;SDS011;58809;47.984;7.964;2022-10-16T12:29:12;3.45;;;2.00;;
43700;SDS011;58809;47.984;7.964;2022-10-16T12:32:36;2.47;;;2.28;;
43700;SDS011;58809;47.984;7.964;2022-10-16T12:35:53;3.72;;;2.30;;
43700;SDS011;58809;47.984;7.964;2022-10-16T12:38:56;4.25;;;2.40;;
43700;SDS011;58809;47.984;7.964;2022-10-16T12:42:00;4.27;;;2.73;;
43700;SDS011;58809;47.984;7.964;2022-10-16T12:45:13;3.58;;;2.50;;
43700;SDS011;58809;47.984;7.964;2022-10-16T12:48:24;2.67;;;2.45;;
43700;SDS011;58809;47.984;7.964;2022-10-16T12:51:42;3.85;;;2.50;;
43700;SDS011;58809;47.984;7.964;2022-10-16T12:54:44;5.05;;;2.30;;
43700;SDS011;58809;47.984;7.964;2022-10-16T12:57:56;3.38;;;2.00;;
43700;SDS011;58809;47.984;7.964;2022-10-16T13:15:02;2.30;;;2.10;;
43700;SDS011;58809;47.984;7.964;2022-10-16T13:28:38;6.20;;;2.37;;
43700;SDS011;58809;47.984;7.964;2022-10-16T13:31:43;4.00;;;2.45;;
43700;SDS011;58809;47.984;7.964;2022-10-16T13:35:00;2.50;;;2.28;;
43700;SDS011;58809;47.984;7.964;2022-10-16T13:38:24;5.30;;;2.83;;
43700;SDS011;58809;47.984;7.964;2022-10-16T13:41:25;3.35;;;2.67;;
43700;SDS011;58809;47.984;7.964;2022-10-16T13:44:27;2.92;;;2.50;;
43700;SDS011;58809;47.984;7.964;2022-10-16T13:47:38;3.40;;;2.40;;
43700;SDS011;58809;47.984;7.964;2022-10-16T13:50:39;4.28;;;2.30;;
43700;SDS011;58809;47.984;7.964;2022-10-16T13:53:41;4.55;;;2.70;;
43700;SDS011;58809;47.984;7.964;2022-10-16T13:56:44;6.72;;;2.70;;
43700;SDS011;58809;47.984;7.964;2022-10-16T13:59:45;3.38;;;2.83;;
43700;SDS011;58809;47.984;7.964;2022-10-16T14:02:50;6.93;;;2.67;;
43700;SDS011;58809;47.984;7.964;2022-10-16T14:05:59;3.33;;;2.42;;
43700;SDS011;58809;47.984;7.964;2022-10-16T14:12:25;4.70;;;3.00;;
43700;SDS011;58809;47.984;7.964;2022-10-16T14:15:29;2.90;;;2.60;;
43700;SDS011;58809;47.984;7.964;2022-10-16T14:21:36;3.42;;;2.90;;
43700;SDS011;58809;47.984;7.964;2022-10-16T14:24:38;5.75;;;2.80;;
43700;SDS011;58809;47.984;7.964;2022-10-16T14:27:40;2.90;;;2.38;;
43700;SDS011;58809;47.984;7.964;2022-10-16T14:30:49;4.18;;;2.83;;
43700;SDS011;58809;47.984;7.964;2022-10-16T14:33:55;6.35;;;3.00;;
43700;SDS011;58809;47.984;7.964;2022-10-16T14:36:58;9.95;;;3.15;;
43700;SDS011;58809;47.984;7.964;2022-10-16T14:40:03;2.95;;;2.65;;
43700;SDS011;58809;47.984;7.964;2022-10-16T14:43:05;4.40;;;2.90;;
43700;SDS011;58809;47.984;7.964;2022-10-16T14:46:17;4.88;;;2.40;;
43700;SDS011;58809;47.984;7.964;2022-10-16T14:49:22;3.40;;;2.63;;
43700;SDS011;58809;47.984;7.964;2022-10-16T14:52:24;6.75;;;2.70;;
43700;SDS011;58809;47.984;7.964;2022-10-16T14:55:26;3.92;;;2.70;;
43700;SDS011;58809;47.984;7.964;2022-10-16T14:58:28;4.20;;;3.03;;
43700;SDS011;58809;47.984;7.964;2022-10-16T15:01:29;4.93;;;2.47;;
43700;SDS011;58809;47.984;7.964;2022-10-16T15:04:31;8.73;;;3.38;;
43700;SDS011;58809;47.984;7.964;2022-10-16T15:07:32;5.40;;;3.05;;
43700;SDS011;58809;47.984;7.964;2022-10-16T15:10:36;10.65;;;3.20;;
43700;SDS011;58809;47.984;7.964;2022-10-16T15:13:44;7.28;;;3.10;;
43700;SDS011;58809;47.984;7.964;2022-10-16T15:16:46;5.35;;;3.22;;
43700;SDS011;58809;47.984;7.964;2022-10-16T15:19:47;8.60;;;3.50;;
43700;SDS011;58809;47.984;7.964;2022-10-16T15:22:49;6.78;;;3.25;;
43700;SDS011;58809;47.984;7.964;2022-10-16T15:25:51;9.95;;;3.67;;
43700;SDS011;58809;47.984;7.964;2022-10-16T15:28:57;8.02;;;3.90;;
43700;SDS011;58809;47.984;7.964;2022-10-16T15:31:59;5.85;;;3.63;;
43700;SDS011;58809;47.984;7.964;2022-10-16T15:35:03;5.05;;;3.38;;
43700;SDS011;58809;47.984;7.964;2022-10-16T15:38:13;7.70;;;3.53;;
43700;SDS011;58809;47.984;7.964;2022-10-16T15:41:16;6.90;;;3.63;;
43700;SDS011;58809;47.984;7.964;2022-10-16T15:44:18;7.75;;;3.90;;
43700;SDS011;58809;47.984;7.964;2022-10-16T15:47:20;10.52;;;3.55;;
43700;SDS011;58809;47.984;7.964;2022-10-16T15:50:21;6.95;;;3.33;;
43700;SDS011;58809;47.984;7.964;2022-10-16T15:53:23;6.07;;;3.65;;
43700;SDS011;58809;47.984;7.964;2022-10-16T15:56:24;4.90;;;3.38;;
43700;SDS011;58809;47.984;7.964;2022-10-16T15:59:29;8.07;;;3.38;;
43700;SDS011;58809;47.984;7.964;2022-10-16T16:02:31;5.40;;;3.25;;
43700;SDS011;58809;47.984;7.964;2022-10-16T16:05:33;8.23;;;3.50;;
43700;SDS011;58809;47.984;7.964;2022-10-16T16:08:36;10.57;;;3.83;;
43700;SDS011;58809;47.984;7.964;2022-10-16T16:11:38;10.65;;;3.42;;
43700;SDS011;58809;47.984;7.964;2022-10-16T16:14:40;10.25;;;4.57;;
43700;SDS011;58809;47.984;7.964;2022-10-16T16:17:42;7.82;;;3.72;;
43700;SDS011;58809;47.984;7.964;2022-10-16T16:20:45;6.73;;;3.53;;
43700;SDS011;58809;47.984;7.964;2022-10-16T16:23:46;12.90;;;4.35;;
43700;SDS011;58809;47.984;7.964;2022-10-16T16:26:48;10.02;;;4.30;;
43700;SDS011;58809;47.984;7.964;2022-10-16T16:29:49;7.82;;;4.10;;
43700;SDS011;58809;47.984;7.964;2022-10-16T16:32:51;13.02;;;4.60;;
43700;SDS011;58809;47.984;7.964;2022-10-16T16:36:00;11.60;;;4.75;;
43700;SDS011;58809;47.984;7.964;2022-10-16T16:39:03;14.40;;;5.57;;
43700;SDS011;58809;47.984;7.964;2022-10-16T16:42:05;10.60;;;5.28;;
43700;SDS011;58809;47.984;7.964;2022-10-16T16:45:08;11.70;;;4.60;;
43700;SDS011;58809;47.984;7.964;2022-10-16T16:48:10;11.30;;;4.68;;
43700;SDS011;58809;47.984;7.964;2022-10-16T16:51:13;8.55;;;4.20;;
43700;SDS011;58809;47.984;7.964;2022-10-16T16:54:17;11.00;;;4.90;;
43700;SDS011;58809;47.984;7.964;2022-10-16T16:57:19;11.90;;;4.72;;
43700;SDS011;58809;47.984;7.964;2022-10-16T17:00:21;7.28;;;4.15;;
43700;SDS011;58809;47.984;7.964;2022-10-16T17:03:22;13.90;;;4.25;;
43700;SDS011;58809;47.984;7.964;2022-10-16T17:06:25;13.00;;;4.70;;
43700;SDS011;58809;47.984;7.964;2022-10-16T17:09:28;18.05;;;7.45;;
43700;SDS011;58809;47.984;7.964;2022-10-16T17:12:29;12.70;;;6.45;;
43700;SDS011;58809;47.984;7.964;2022-10-16T17:15:31;19.88;;;12.60;;
43700;SDS011;58809;47.984;7.964;2022-10-16T17:18:33;42.25;;;29.30;;
43700;SDS011;58809;47.984;7.964;2022-10-16T17:21:35;41.05;;;27.77;;
43700;SDS011;58809;47.984;7.964;2022-10-16T17:24:37;34.38;;;22.33;;
43700;SDS011;58809;47.984;7.964;2022-10-16T17:27:39;15.65;;;8.15;;
43700;SDS011;58809;47.984;7.964;2022-10-16T17:30:41;10.70;;;5.75;;
43700;SDS011;58809;47.984;7.964;2022-10-16T17:33:43;10.85;;;5.70;;
43700;SDS011;58809;47.984;7.964;2022-10-16T17:36:45;14.27;;;6.70;;
43700;SDS011;58809;47.984;7.964;2022-10-16T17:39:49;13.73;;;6.50;;
43700;SDS011;58809;47.984;7.964;2022-10-16T17:42:51;20.88;;;8.05;;
43700;SDS011;58809;47.984;7.964;2022-10-16T17:45:52;18.67;;;8.50;;
43700;SDS011;58809;47.984;7.964;2022-10-16T17:48:54;14.13;;;6.60;;
43700;SDS011;58809;47.984;7.964;2022-10-16T17:51:56;12.68;;;6.30;;
43700;SDS011;58809;47.984;7.964;2022-10-16T17:54:57;15.40;;;6.07;;
43700;SDS011;58809;47.984;7.964;2022-10-16T17:57:59;16.25;;;8.10;;
43700;SDS011;58809;47.984;7.964;2022-10-16T18:01:01;11.43;;;6.30;;
43700;SDS011;58809;47.984;7.964;2022-10-16T18:04:13;10.30;;;6.00;;
43700;SDS011;58809;47.984;7.964;2022-10-16T18:07:16;9.57;;;5.68;;
43700;SDS011;58809;47.984;7.964;2022-10-16T18:10:18;13.25;;;5.45;;
43700;SDS011;58809;47.984;7.964;2022-10-16T18:13:21;10.90;;;4.93;;
43700;SDS011;58809;47.984;7.964;2022-10-16T18:16:24;10.00;;;4.63;;
43700;SDS011;58809;47.984;7.964;2022-10-16T18:19:27;10.45;;;5.20;;
43700;SDS011;58809;47.984;7.964;2022-10-16T18:22:29;14.68;;;6.57;;
43700;SDS011;58809;47.984;7.964;2022-10-16T18:25:31;13.18;;;6.57;;
43700;SDS011;58809;47.984;7.964;2022-10-16T18:28:33;12.40;;;5.95;;
43700;SDS011;58809;47.984;7.964;2022-10-16T18:31:34;8.45;;;4.65;;
43700;SDS011;58809;47.984;7.964;2022-10-16T18:34:44;10.80;;;5.07;;
43700;SDS011;58809;47.984;7.964;2022-10-16T18:37:52;8.65;;;4.50;;
43700;SDS011;58809;47.984;7.964;2022-10-16T18:40:56;13.65;;;4.28;;
43700;SDS011;58809;47.984;7.964;2022-10-16T18:43:58;9.13;;;5.50;;
43700;SDS011;58809;47.984;7.964;2022-10-16T18:47:00;11.68;;;5.00;;
43700;SDS011;58809;47.984;7.964;2022-10-16T18:50:02;8.57;;;4.38;;
43700;SDS011;58809;47.984;7.964;2022-10-16T18:53:09;8.73;;;4.55;;
43700;SDS011;58809;47.984;7.964;2022-10-16T18:56:11;11.98;;;5.82;;
43700;SDS011;58809;47.984;7.964;2022-10-16T18:59:16;7.85;;;5.20;;
43700;SDS011;58809;47.984;7.964;2022-10-16T19:02:18;9.10;;;5.03;;
43700;SDS011;58809;47.984;7.964;2022-10-16T19:05:20;10.52;;;4.80;;
43700;SDS011;58809;47.984;7.964;2022-10-16T19:08:21;12.13;;;5.40;;
43700;SDS011;58809;47.984;7.964;2022-10-16T19:11:23;7.50;;;4.80;;
43700;SDS011;58809;47.984;7.964;2022-10-16T19:14:28;8.52;;;4.32;;
43700;SDS011;58809;47.984;7.964;2022-10-16T19:17:30;8.43;;;4.38;;
43700;SDS011;58809;47.984;7.964;2022-10-16T19:20:31;9.35;;;4.70;;
43700;SDS011;58809;47.984;7.964;2022-10-16T19:23:33;9.63;;;6.53;;
43700;SDS011;58809;47.984;7.964;2022-10-16T19:26:35;11.82;;;5.50;;
43700;SDS011;58809;47.984;7.964;2022-10-16T19:29:42;9.90;;;4.38;;
43700;SDS011;58809;47.984;7.964;2022-10-16T19:32:44;10.25;;;4.03;;
43700;SDS011;58809;47.984;7.964;2022-10-16T19:35:49;11.93;;;4.43;;
43700;SDS011;58809;47.984;7.964;2022-10-16T19:38:52;12.68;;;6.22;;
43700;SDS011;58809;47.984;7.964;2022-10-16T19:41:54;8.10;;;4.68;;
43700;SDS011;58809;47.984;7.964;2022-10-16T19:44:56;13.95;;;4.75;;
43700;SDS011;58809;47.984;7.964;2022-10-16T19:47:57;8.00;;;4.65;;
43700;SDS011;58809;47.984;7.964;2022-10-16T19:50:59;9.85;;;4.38;;
43700;SDS011;58809;47.984;7.964;2022-10-16T19:54:02;9.10;;;4.55;;
43700;SDS011;58809;47.984;7.964;2022-10-16T19:57:05;6.63;;;3.67;;
43700;SDS011;58809;47.984;7.964;2022-10-16T20:00:07;8.18;;;4.22;;
43700;SDS011;58809;47.984;7.964;2022-10-16T20:03:10;11.48;;;4.32;;
43700;SDS011;58809;47.984;7.964;2022-10-16T20:06:12;6.97;;;4.07;;
43700;SDS011;58809;47.984;7.964;2022-10-16T20:09:14;9.75;;;4.60;;
43700;SDS011;58809;47.984;7.964;2022-10-16T20:12:16;9.95;;;4.60;;
43700;SDS011;58809;47.984;7.964;2022-10-16T20:15:17;8.65;;;4.50;;